FW5112 Weather Reports


time (UTC)temp
F
wind
direction
speed
knots
gust
knots
rain 1hr
in
rain 24hr
in
rain mn
in
humidity
%
barometer
mb
20210920060518 77 190 0.0 1.7 0.00 0.00 0.00 79 1010.3
20210920055519 77 221 0.0 3.5 0.00 0.00 0.00 79 1010.3
20210920054532 78 194 0.0 1.7 0.00 0.00 0.00 79 1010.3
20210920053526 78 199 0.0 1.7 0.00 0.00 0.00 78 1010.4
20210920052526 78 217 0.0 1.7 0.00 0.00 0.00 78 1010.6
20210920051521 78 193 0.0 3.5 0.00 0.00 0.00 77 1010.7
20210920050518 79 227 0.0 1.7 0.00 0.00 0.00 77 1010.7
20210920045532 79 193 0.0 1.7 0.00 0.00 0.00 76 1010.8
20210920044525 79 203 0.0 3.5 0.00 0.00 0.00 74 1011.0
20210920043520 79 203 0.0 3.5 0.00 0.00 0.00 74 1011.0
20210920042518 80 196 0.0 1.7 0.00 0.00 0.00 73 1011.0
20210920041531 80 206 0.0 1.7 0.00 0.00 0.00 72 1011.0
20210920040527 80 187 0.0 1.7 0.00 0.00 0.00 71 1011.0
20210920035526 81 195 0.0 3.5 0.00 0.00 0.00 70 1011.3
20210920034525 81 187 0.9 3.5 0.00 0.00 0.00 70 1011.4
20210920033518 81 193 0.9 3.5 0.00 0.00 0.00 70 1011.4
20210920032529 82 179 0.0 1.7 0.00 0.00 0.00 71 1011.4
20210920031531 82 188 0.0 1.7 0.00 0.00 0.00 70 1011.4
20210920030520 82 199 0.9 3.5 0.00 0.00 0.00 69 1011.4
20210920025525 83 227 0.0 1.7 0.00 0.00 0.00 68 1011.4
20210920024519 83 0.0 0.0 0.00 0.00 0.00 68 1011.3
20210920023517 83 202 0.0 1.7 0.00 0.00 0.00 67 1011.1
20210920022530 84 204 0.0 1.7 0.00 0.00 0.00 67 1011.0
20210920021531 84 0.0 0.0 0.00 0.00 0.00 65 1011.0
20210920020526 84 200 0.0 1.7 0.00 0.00 0.00 64 1010.7
20210920015526 85 225 0.0 1.7 0.00 0.00 0.00 63 1010.6
20210920014522 85 199 0.0 3.5 0.00 0.00 0.00 62 1010.3
20210920013526 85 204 1.7 6.1 0.00 0.00 0.00 60 1010.3
20210920012525 85 207 0.9 3.5 0.00 0.00 0.00 59 1010.0
20210920011518 86 0.0 0.0 0.00 0.00 0.00 60 1009.9
20210920010530 86 0.0 0.0 0.00 0.00 0.00 60 1009.9
20210920005526 87 0.0 0.0 0.00 0.00 0.00 58 1010.0
20210920004525 87 0.0 0.0 0.00 0.00 0.00 56 1009.8
20210920003521 88 195 0.0 1.7 0.00 0.00 0.00 55 1009.9
20210920002529 88 205 0.0 1.7 0.00 0.00 0.00 53 1009.8
20210920001526 88 195 0.0 1.7 0.00 0.00 0.00 52 1009.8
20210920000530 89 191 0.0 3.5 0.00 0.00 0.00 51 1009.7
20210919235526 89 194 0.0 1.7 0.00 0.00 0.00 51 1009.6
20210919234518 89 195 0.0 1.7 0.00 0.00 0.00 50 1009.6
20210919233528 89 242 0.0 1.7 0.00 0.00 0.00 50 1009.6
20210919232526 90 204 0.9 6.1 0.00 0.00 0.00 48 1009.6
20210919231526 90 203 0.9 6.1 0.00 0.00 0.00 51 1009.9
20210919230526 90 203 0.0 1.7 0.00 0.00 0.00 51 1009.6
20210919225518 90 211 1.7 6.1 0.00 0.00 0.00 51 1009.6
20210919224525 90 302 0.0 1.7 0.00 0.00 0.00 49 1009.7
20210919223525 90 210 0.9 6.1 0.00 0.00 0.00 49 1009.6
20210919222526 90 213 0.0 3.5 0.00 0.00 0.00 51 1009.8
20210919221526 90 206 1.7 3.5 0.00 0.00 0.00 52 1009.8
20210919220528 91 199 0.9 3.5 0.00 0.00 0.00 51 1010.0
20210919215525 91 201 0.0 3.5 0.00 0.00 0.00 50 1009.9
20210919214519 91 208 0.0 3.5 0.00 0.00 0.00 49 1010.0
20210919213531 91 204 0.0 3.5 0.00 0.00 0.00 48 1010.0
20210919212529 91 211 1.7 7.8 0.00 0.00 0.00 49 1010.3
20210919211522 91 197 0.0 1.7 0.00 0.00 0.00 49 1010.3
20210919210526 91 198 1.7 7.8 0.00 0.00 0.00 51 1010.3
20210919205525 91 211 0.9 6.1 0.00 0.00 0.00 51 1010.4
20210919204517 91 199 0.9 3.5 0.00 0.00 0.00 51 1010.7
20210919203517 91 206 0.9 6.1 0.00 0.00 0.00 52 1011.0
20210919202530 91 259 0.0 3.5 0.00 0.00 0.00 51 1011.0
20210919201532 91 86 0.0 1.7 0.00 0.00 0.00 52 1011.3
20210919200529 91 211 0.0 3.5 0.00 0.00 0.00 50 1011.6
20210919195520 91 181 0.0 1.7 0.00 0.00 0.00 51 1011.7
20210919194518 91 209 0.9 3.5 0.00 0.00 0.00 51 1012.0
20210919193525 90 202 0.9 6.1 0.00 0.00 0.00 52 1012.1
20210919192530 91 230 1.7 6.1 0.00 0.00 0.00 52 1012.5
20210919191518 91 216 1.7 3.5 0.00 0.00 0.00 52 1012.7
20210919190525 91 211 1.7 6.1 0.00 0.00 0.00 53 1013.0
20210919185517 91 235 1.7 6.1 0.00 0.00 0.00 53 1013.1
20210919184531 91 246 0.9 6.1 0.00 0.00 0.00 53 1013.2
20210919183518 91 237 0.9 6.1 0.00 0.00 0.00 54 1013.3
20210919182517 90 206 0.0 3.5 0.00 0.00 0.00 54 1013.4
20210919181519 90 205 0.9 6.1 0.00 0.00 0.00 54 1013.8
20210919180530 90 219 0.9 3.5 0.00 0.00 0.00 56 1013.8
20210919175516 90 212 0.9 3.5 0.00 0.00 0.00 58 1013.9
20210919174525 90 199 0.0 1.7 0.00 0.00 0.00 57 1014.1
20210919173519 89 209 0.0 3.5 0.00 0.00 0.00 57 1014.2
20210919172529 89 232 0.9 6.1 0.00 0.00 0.00 61 1014.4
20210919171526 89 221 0.0 3.5 0.00 0.00 0.00 59 1014.7
20210919170529 88 204 0.0 3.5 0.00 0.00 0.00 62 1014.8
20210919165525 87 213 0.9 6.1 0.00 0.00 0.00 61 1014.8
20210919164525 85 194 0.0 3.5 0.00 0.00 0.00 62 1014.8
20210919163527 85 212 0.9 3.5 0.00 0.00 0.00 68 1014.8
20210919162525 86 204 0.9 3.5 0.00 0.00 0.00 70 1015.1
20210919161517 86 242 0.0 3.5 0.00 0.00 0.00 65 1015.2
20210919160525 86 298 0.0 1.7 0.00 0.00 0.00 67 1015.2
20210919155525 86 231 0.0 3.5 0.00 0.00 0.00 66 1015.2
20210919154517 85 210 0.9 3.5 0.00 0.00 0.00 68 1015.2
20210919153530 85 216 0.9 3.5 0.00 0.00 0.00 67 1015.1
20210919152525 84 213 0.0 3.5 0.00 0.00 0.00 70 1015.0
20210919151525 83 207 0.9 3.5 0.00 0.00 0.00 70 1014.9
20210919150518 83 216 0.9 3.5 0.00 0.00 0.00 72 1015.0
20210919145530 82 203 0.0 3.5 0.00 0.00 0.00 71 1015.0
20210919144527 81 199 0.9 3.5 0.00 0.00 0.00 72 1014.8
20210919143525 80 223 0.9 3.5 0.00 0.00 0.00 75 1014.8
20210919142526 80 217 0.0 1.7 0.00 0.00 0.00 75 1014.8
20210919141525 80 226 0.9 3.5 0.00 0.00 0.00 78 1014.7
20210919140524 80 210 0.9 3.5 0.00 0.00 0.00 78 1014.7
20210919135517 78 203 0.0 3.5 0.00 0.00 0.00 75 1014.7
20210919134530 77 209 0.0 1.7 0.00 0.00 0.00 76 1014.5
20210919133526 76 0.0 0.0 0.00 0.00 0.00 80 1014.7
20210919132520 75 199 0.0 1.7 0.00 0.00 0.00 83 1014.8
20210919131516 74 222 0.0 1.7 0.00 0.00 0.00 82 1014.8
20210919130531 72 0.0 0.0 0.00 0.00 0.00 84 1014.5
20210919125529 71 0.0 0.0 0.00 0.00 0.00 90 1014.5
20210919124529 71 0.0 0.0 0.00 0.00 0.00 94 1014.4
20210919123528 71 0.0 0.0 0.00 0.00 0.00 94 1014.2
20210919122524 71 0.0 0.0 0.00 0.00 0.00 93 1014.1
20210919121525 71 0.0 0.0 0.00 0.00 0.00 93 1014.1
20210919120525 71 0.0 0.0 0.00 0.00 0.00 93 1014.1
20210919115525 71 0.0 0.0 0.00 0.00 0.00 92 1014.1
20210919114520 71 0.0 0.0 0.00 0.00 0.00 92 1014.1
20210919113521 72 0.0 0.0 0.00 0.00 0.00 92 1014.1
20210919112528 72 0.0 0.0 0.00 0.00 0.00 92 1014.1
20210919111517 72 0.0 0.0 0.00 0.00 0.00 92 1014.2
20210919110520 72 0.0 0.0 0.00 0.00 0.00 92 1014.1
20210919105521 72 0.0 0.0 0.00 0.00 0.00 91 1014.1
20210919104520 72 0.0 0.0 0.00 0.00 0.00 91 1014.1
20210919103525 72 0.0 0.0 0.00 0.00 0.00 91 1014.1
20210919102529 73 0.0 0.0 0.00 0.00 0.00 91 1014.1
20210919101518 73 0.0 0.0 0.00 0.00 0.00 90 1014.1
20210919100525 73 0.0 0.0 0.00 0.00 0.00 90 1014.1
20210919095529 73 0.0 0.0 0.00 0.00 0.00 90 1014.1
20210919094516 74 0.0 0.0 0.00 0.00 0.00 90 1014.1
20210919093525 74 0.0 0.0 0.00 0.00 0.00 89 1014.1
20210919092516 74 0.0 0.0 0.00 0.00 0.00 89 1014.1
20210919091524 74 0.0 0.0 0.00 0.00 0.00 89 1014.1
20210919090525 75 0.0 0.0 0.00 0.00 0.00 88 1014.2
20210919085516 75 0.0 0.0 0.00 0.00 0.00 88 1014.3
20210919084518 75 0.0 0.0 0.00 0.00 0.00 88 1014.5
20210919083517 75 0.0 0.0 0.00 0.00 0.00 88 1014.3
20210919082519 75 0.0 0.0 0.00 0.00 0.00 88 1014.5
20210919081520 75 0.0 0.0 0.00 0.00 0.00 87 1014.5
20210919080517 75 0.0 0.0 0.00 0.00 0.00 87 1014.5
20210919075516 76 0.0 0.0 0.00 0.00 0.00 87 1014.5
20210919074529 76 0.0 0.0 0.00 0.00 0.00 86 1014.5
20210919073531 76 0.0 0.0 0.00 0.00 0.00 85 1014.5
20210919072518 77 0.0 0.0 0.00 0.00 0.00 84 1014.5
20210919071524 77 208 0.0 3.5 0.00 0.00 0.00 84 1014.7
20210919070528 77 0.0 0.0 0.00 0.00 0.00 85 1014.8
20210919065516 77 0.0 0.0 0.00 0.00 0.00 84 1014.8
20210919064525 77 0.0 0.0 0.00 0.00 0.00 83 1014.8
20210919063524 78 0.0 0.0 0.00 0.00 0.00 82 1014.8
20210919062516 78 0.0 0.0 0.00 0.00 0.00 81 1014.8
20210919061517 78 204 0.0 1.7 0.00 0.00 0.00 82 1014.8